Weather at Kothmann Ranch Heliport

Public forecast

Using degrees Fahrenheit for public forecast. Weather courtesy of forecast.io.

Closest aviation weather report (METAR) to Kothmann Ranch Heliport

Closest report is Kimble County Airport, 21.5 nm (39.7 km) ESE.

2024/05/20 21:51 (retrieved 36 minutes ago)

KJCT 202151Z AUTO 18008G16KT 7SM CLR 37/19 A2978 RMK AO2 SLP042 T03670189

Closest aviation forecast (TAF) to Kothmann Ranch Heliport

Closest forecast is Kimble County Airport, 21.5 nm (39.7 km) ESE.

2024/05/20 18:22 (retrieved 4 hours ago)

TAF KJCT 201720Z 2018/2118 19011G17KT P6SM FEW250 FM210100 15011KT P6SM SCT250 FM210500 15011G19KT P6SM BKN250 FM210800 17010KT P6SM BKN015 FM211600 20010G17KT P6SM SCT050